sensor_id;sensor_type;location;lat;lon;timestamp;temperature;humidity
33023;DHT22;19390;51.460;5.710;2023-05-07T00:00:20;15.20;99.90
33023;DHT22;19390;51.460;5.710;2023-05-07T00:02:46;15.20;99.90
33023;DHT22;19390;51.460;5.710;2023-05-07T00:05:11;15.20;99.90
33023;DHT22;19390;51.460;5.710;2023-05-07T00:07:37;15.30;99.90
33023;DHT22;19390;51.460;5.710;2023-05-07T00:10:03;15.30;99.90
33023;DHT22;19390;51.460;5.710;2023-05-07T00:12:29;15.40;99.90
33023;DHT22;19390;51.460;5.710;2023-05-07T00:15:02;15.40;99.90
33023;DHT22;19390;51.460;5.710;2023-05-07T00:17:28;15.50;99.90
33023;DHT22;19390;51.460;5.710;2023-05-07T00:19:53;15.60;99.90
33023;DHT22;19390;51.460;5.710;2023-05-07T00:22:19;15.60;99.90
33023;DHT22;19390;51.460;5.710;2023-05-07T00:24:44;15.60;99.90
33023;DHT22;19390;51.460;5.710;2023-05-07T00:27:10;15.50;99.90
33023;DHT22;19390;51.460;5.710;2023-05-07T00:29:35;15.50;99.90
33023;DHT22;19390;51.460;5.710;2023-05-07T00:32:02;15.40;99.90
33023;DHT22;19390;51.460;5.710;2023-05-07T00:34:27;15.20;99.90
33023;DHT22;19390;51.460;5.710;2023-05-07T00:36:53;15.20;99.90
33023;DHT22;19390;51.460;5.710;2023-05-07T00:39:18;15.20;99.90
33023;DHT22;19390;51.460;5.710;2023-05-07T00:41:44;15.20;99.90
33023;DHT22;19390;51.460;5.710;2023-05-07T00:44:10;15.20;99.90
33023;DHT22;19390;51.460;5.710;2023-05-07T00:46:35;15.20;99.90
33023;DHT22;19390;51.460;5.710;2023-05-07T00:49:01;15.20;99.90
33023;DHT22;19390;51.460;5.710;2023-05-07T00:51:27;15.20;99.90
33023;DHT22;19390;51.460;5.710;2023-05-07T00:53:54;15.20;99.90
33023;DHT22;19390;51.460;5.710;2023-05-07T00:56:21;15.10;99.90
33023;DHT22;19390;51.460;5.710;2023-05-07T00:58:48;15.20;99.90
33023;DHT22;19390;51.460;5.710;2023-05-07T01:01:14;15.20;99.90
33023;DHT22;19390;51.460;5.710;2023-05-07T01:03:42;15.20;99.90
33023;DHT22;19390;51.460;5.710;2023-05-07T01:06:08;15.20;99.90
33023;DHT22;19390;51.460;5.710;2023-05-07T01:08:35;15.20;99.90
33023;DHT22;19390;51.460;5.710;2023-05-07T01:11:01;15.20;99.90
33023;DHT22;19390;51.460;5.710;2023-05-07T01:13:27;15.30;99.90
33023;DHT22;19390;51.460;5.710;2023-05-07T01:15:53;15.40;99.90
33023;DHT22;19390;51.460;5.710;2023-05-07T01:18:19;15.50;99.90
33023;DHT22;19390;51.460;5.710;2023-05-07T01:20:45;15.50;99.90
33023;DHT22;19390;51.460;5.710;2023-05-07T01:23:11;15.50;99.90
33023;DHT22;19390;51.460;5.710;2023-05-07T01:25:37;15.50;99.90
33023;DHT22;19390;51.460;5.710;2023-05-07T01:28:02;15.60;99.90
33023;DHT22;19390;51.460;5.710;2023-05-07T01:30:28;15.50;99.90
33023;DHT22;19390;51.460;5.710;2023-05-07T01:33:08;15.40;99.90
33023;DHT22;19390;51.460;5.710;2023-05-07T01:35:40;15.40;99.90
33023;DHT22;19390;51.460;5.710;2023-05-07T01:38:08;15.40;99.90
33023;DHT22;19390;51.460;5.710;2023-05-07T01:40:34;15.50;99.90
33023;DHT22;19390;51.460;5.710;2023-05-07T01:43:03;15.50;99.90
33023;DHT22;19390;51.460;5.710;2023-05-07T01:45:30;15.50;99.90
33023;DHT22;19390;51.460;5.710;2023-05-07T01:47:58;15.50;99.90
33023;DHT22;19390;51.460;5.710;2023-05-07T01:50:25;15.50;99.90
33023;DHT22;19390;51.460;5.710;2023-05-07T01:52:51;15.50;99.90
33023;DHT22;19390;51.460;5.710;2023-05-07T01:55:16;15.50;99.90
33023;DHT22;19390;51.460;5.710;2023-05-07T01:57:42;15.60;99.90
33023;DHT22;19390;51.460;5.710;2023-05-07T02:00:08;15.60;99.90
33023;DHT22;19390;51.460;5.710;2023-05-07T02:02:34;15.60;99.90
33023;DHT22;19390;51.460;5.710;2023-05-07T02:05:00;15.60;99.90
33023;DHT22;19390;51.460;5.710;2023-05-07T02:07:27;15.60;99.90
33023;DHT22;19390;51.460;5.710;2023-05-07T02:09:53;15.60;99.90
33023;DHT22;19390;51.460;5.710;2023-05-07T02:12:19;15.60;99.90
33023;DHT22;19390;51.460;5.710;2023-05-07T02:14:44;15.60;99.90
33023;DHT22;19390;51.460;5.710;2023-05-07T02:17:10;15.70;99.90
33023;DHT22;19390;51.460;5.710;2023-05-07T02:19:35;15.70;99.90
33023;DHT22;19390;51.460;5.710;2023-05-07T02:22:01;15.60;99.90
33023;DHT22;19390;51.460;5.710;2023-05-07T02:24:26;15.70;99.90
33023;DHT22;19390;51.460;5.710;2023-05-07T02:26:52;15.70;99.90
33023;DHT22;19390;51.460;5.710;2023-05-07T02:29:17;15.70;99.90
33023;DHT22;19390;51.460;5.710;2023-05-07T02:31:43;15.70;99.90
33023;DHT22;19390;51.460;5.710;2023-05-07T02:34:09;15.80;99.90
33023;DHT22;19390;51.460;5.710;2023-05-07T02:36:34;15.70;99.90
33023;DHT22;19390;51.460;5.710;2023-05-07T02:39:00;15.70;99.90
33023;DHT22;19390;51.460;5.710;2023-05-07T02:41:26;15.70;99.90
33023;DHT22;19390;51.460;5.710;2023-05-07T02:43:53;15.70;99.90
33023;DHT22;19390;51.460;5.710;2023-05-07T02:46:19;15.70;99.90
33023;DHT22;19390;51.460;5.710;2023-05-07T02:48:44;15.60;99.90
33023;DHT22;19390;51.460;5.710;2023-05-07T02:51:10;15.70;99.90
33023;DHT22;19390;51.460;5.710;2023-05-07T02:53:36;15.70;99.90
33023;DHT22;19390;51.460;5.710;2023-05-07T02:56:02;15.70;99.90
33023;DHT22;19390;51.460;5.710;2023-05-07T02:58:28;15.60;99.90
33023;DHT22;19390;51.460;5.710;2023-05-07T03:00:53;15.60;99.90
33023;DHT22;19390;51.460;5.710;2023-05-07T03:03:22;15.60;99.90
33023;DHT22;19390;51.460;5.710;2023-05-07T03:05:48;15.60;99.90
33023;DHT22;19390;51.460;5.710;2023-05-07T03:08:14;15.50;99.90
33023;DHT22;19390;51.460;5.710;2023-05-07T03:10:39;15.60;99.90
33023;DHT22;19390;51.460;5.710;2023-05-07T03:13:05;15.60;99.90
33023;DHT22;19390;51.460;5.710;2023-05-07T03:15:31;15.60;99.90
33023;DHT22;19390;51.460;5.710;2023-05-07T03:17:56;15.60;99.90
33023;DHT22;19390;51.460;5.710;2023-05-07T03:20:22;15.60;99.90
33023;DHT22;19390;51.460;5.710;2023-05-07T03:22:48;15.60;99.90
33023;DHT22;19390;51.460;5.710;2023-05-07T03:25:14;15.60;99.90
33023;DHT22;19390;51.460;5.710;2023-05-07T03:27:40;15.60;99.90
33023;DHT22;19390;51.460;5.710;2023-05-07T03:30:07;15.60;99.90
33023;DHT22;19390;51.460;5.710;2023-05-07T03:32:34;15.60;99.90
33023;DHT22;19390;51.460;5.710;2023-05-07T03:35:00;15.60;99.90
33023;DHT22;19390;51.460;5.710;2023-05-07T03:37:26;15.70;99.90
33023;DHT22;19390;51.460;5.710;2023-05-07T03:39:52;15.70;99.90
33023;DHT22;19390;51.460;5.710;2023-05-07T03:42:17;15.70;99.90
33023;DHT22;19390;51.460;5.710;2023-05-07T03:44:43;15.80;99.90
33023;DHT22;19390;51.460;5.710;2023-05-07T03:47:09;15.80;99.90
33023;DHT22;19390;51.460;5.710;2023-05-07T03:49:35;15.80;99.90
33023;DHT22;19390;51.460;5.710;2023-05-07T03:52:01;15.80;99.90
33023;DHT22;19390;51.460;5.710;2023-05-07T03:54:27;15.70;99.90
33023;DHT22;19390;51.460;5.710;2023-05-07T03:56:52;15.70;99.90
33023;DHT22;19390;51.460;5.710;2023-05-07T03:59:18;15.80;99.90
33023;DHT22;19390;51.460;5.710;2023-05-07T04:01:43;15.80;99.90
33023;DHT22;19390;51.460;5.710;2023-05-07T04:04:09;15.80;99.90
33023;DHT22;19390;51.460;5.710;2023-05-07T04:06:34;15.80;99.90
33023;DHT22;19390;51.460;5.710;2023-05-07T04:09:00;15.90;99.90
33023;DHT22;19390;51.460;5.710;2023-05-07T04:11:27;15.90;99.90
33023;DHT22;19390;51.460;5.710;2023-05-07T04:13:52;15.90;99.90
33023;DHT22;19390;51.460;5.710;2023-05-07T04:16:18;16.00;99.90
33023;DHT22;19390;51.460;5.710;2023-05-07T04:18:44;16.00;99.90
33023;DHT22;19390;51.460;5.710;2023-05-07T04:21:19;16.00;99.90
33023;DHT22;19390;51.460;5.710;2023-05-07T04:23:49;16.00;99.90
33023;DHT22;19390;51.460;5.710;2023-05-07T04:26:15;16.00;99.90
33023;DHT22;19390;51.460;5.710;2023-05-07T04:28:42;16.00;99.90
33023;DHT22;19390;51.460;5.710;2023-05-07T04:31:08;16.10;99.90
33023;DHT22;19390;51.460;5.710;2023-05-07T04:33:34;16.10;99.90
33023;DHT22;19390;51.460;5.710;2023-05-07T04:36:03;16.20;99.90
33023;DHT22;19390;51.460;5.710;2023-05-07T04:38:30;16.30;99.90
33023;DHT22;19390;51.460;5.710;2023-05-07T04:40:56;16.30;99.90
33023;DHT22;19390;51.460;5.710;2023-05-07T04:43:22;16.30;99.90
33023;DHT22;19390;51.460;5.710;2023-05-07T04:45:49;16.30;99.90
33023;DHT22;19390;51.460;5.710;2023-05-07T04:48:14;16.40;99.90
33023;DHT22;19390;51.460;5.710;2023-05-07T04:50:40;16.40;99.90
33023;DHT22;19390;51.460;5.710;2023-05-07T04:53:06;16.50;99.90
33023;DHT22;19390;51.460;5.710;2023-05-07T04:55:32;16.50;99.90
33023;DHT22;19390;51.460;5.710;2023-05-07T04:57:57;16.50;99.90
33023;DHT22;19390;51.460;5.710;2023-05-07T05:00:23;16.60;99.90
33023;DHT22;19390;51.460;5.710;2023-05-07T05:02:49;16.70;99.90
33023;DHT22;19390;51.460;5.710;2023-05-07T05:05:14;16.80;99.90
33023;DHT22;19390;51.460;5.710;2023-05-07T05:07:40;16.80;99.90
33023;DHT22;19390;51.460;5.710;2023-05-07T05:10:06;16.80;99.90
33023;DHT22;19390;51.460;5.710;2023-05-07T05:12:31;17.10;99.90
33023;DHT22;19390;51.460;5.710;2023-05-07T05:14:57;17.80;99.90
33023;DHT22;19390;51.460;5.710;2023-05-07T05:17:23;17.90;99.90
33023;DHT22;19390;51.460;5.710;2023-05-07T05:19:48;17.20;99.90
33023;DHT22;19390;51.460;5.710;2023-05-07T05:22:14;16.70;99.90
33023;DHT22;19390;51.460;5.710;2023-05-07T05:24:40;16.40;99.90
33023;DHT22;19390;51.460;5.710;2023-05-07T05:27:06;16.40;99.90
33023;DHT22;19390;51.460;5.710;2023-05-07T05:29:31;16.40;99.90
33023;DHT22;19390;51.460;5.710;2023-05-07T05:31:57;16.40;99.90
33023;DHT22;19390;51.460;5.710;2023-05-07T05:34:22;16.50;99.90
33023;DHT22;19390;51.460;5.710;2023-05-07T05:36:48;16.60;99.90
33023;DHT22;19390;51.460;5.710;2023-05-07T05:39:14;16.50;99.90
33023;DHT22;19390;51.460;5.710;2023-05-07T05:41:39;16.50;99.90
33023;DHT22;19390;51.460;5.710;2023-05-07T05:44:05;16.30;99.90
33023;DHT22;19390;51.460;5.710;2023-05-07T05:46:31;16.20;99.90
33023;DHT22;19390;51.460;5.710;2023-05-07T05:48:57;16.10;99.90
33023;DHT22;19390;51.460;5.710;2023-05-07T05:51:23;16.20;99.90
33023;DHT22;19390;51.460;5.710;2023-05-07T05:53:49;16.40;99.90
33023;DHT22;19390;51.460;5.710;2023-05-07T05:56:15;16.50;99.90
33023;DHT22;19390;51.460;5.710;2023-05-07T05:58:41;16.50;99.90
33023;DHT22;19390;51.460;5.710;2023-05-07T06:01:07;16.60;99.90
33023;DHT22;19390;51.460;5.710;2023-05-07T06:03:33;16.70;99.90
33023;DHT22;19390;51.460;5.710;2023-05-07T06:05:59;16.60;99.90
33023;DHT22;19390;51.460;5.710;2023-05-07T06:08:29;16.70;99.90
33023;DHT22;19390;51.460;5.710;2023-05-07T06:10:55;16.60;99.90
33023;DHT22;19390;51.460;5.710;2023-05-07T06:13:20;16.70;99.90
33023;DHT22;19390;51.460;5.710;2023-05-07T06:15:46;16.80;99.90
33023;DHT22;19390;51.460;5.710;2023-05-07T06:18:12;17.00;99.90
33023;DHT22;19390;51.460;5.710;2023-05-07T06:20:38;17.10;99.90
33023;DHT22;19390;51.460;5.710;2023-05-07T06:23:04;17.10;99.90
33023;DHT22;19390;51.460;5.710;2023-05-07T06:25:29;17.20;99.90
33023;DHT22;19390;51.460;5.710;2023-05-07T06:27:55;16.80;99.90
33023;DHT22;19390;51.460;5.710;2023-05-07T06:30:21;16.90;99.90
33023;DHT22;19390;51.460;5.710;2023-05-07T06:32:47;17.20;99.90
33023;DHT22;19390;51.460;5.710;2023-05-07T06:35:13;17.80;99.90
33023;DHT22;19390;51.460;5.710;2023-05-07T06:37:39;17.50;99.90
33023;DHT22;19390;51.460;5.710;2023-05-07T06:40:06;17.80;99.90
33023;DHT22;19390;51.460;5.710;2023-05-07T06:42:32;17.70;99.90
33023;DHT22;19390;51.460;5.710;2023-05-07T06:44:58;17.50;99.90
33023;DHT22;19390;51.460;5.710;2023-05-07T06:47:24;17.30;99.90
33023;DHT22;19390;51.460;5.710;2023-05-07T06:49:50;17.00;99.90
33023;DHT22;19390;51.460;5.710;2023-05-07T06:52:16;17.40;99.90
33023;DHT22;19390;51.460;5.710;2023-05-07T06:54:41;17.60;99.90
33023;DHT22;19390;51.460;5.710;2023-05-07T06:57:07;17.80;99.90
33023;DHT22;19390;51.460;5.710;2023-05-07T06:59:33;17.60;99.90
33023;DHT22;19390;51.460;5.710;2023-05-07T07:01:59;17.60;99.90
33023;DHT22;19390;51.460;5.710;2023-05-07T07:04:24;17.30;99.90
33023;DHT22;19390;51.460;5.710;2023-05-07T07:06:53;17.10;99.90
33023;DHT22;19390;51.460;5.710;2023-05-07T07:09:19;17.30;99.90
33023;DHT22;19390;51.460;5.710;2023-05-07T07:11:44;17.40;99.90
33023;DHT22;19390;51.460;5.710;2023-05-07T07:14:10;17.00;99.90
33023;DHT22;19390;51.460;5.710;2023-05-07T07:16:36;17.00;99.90
33023;DHT22;19390;51.460;5.710;2023-05-07T07:19:01;17.40;99.90
33023;DHT22;19390;51.460;5.710;2023-05-07T07:21:27;17.30;99.90
33023;DHT22;19390;51.460;5.710;2023-05-07T07:23:52;17.20;99.90
33023;DHT22;19390;51.460;5.710;2023-05-07T07:26:18;17.80;99.90
33023;DHT22;19390;51.460;5.710;2023-05-07T07:28:44;18.00;99.90
33023;DHT22;19390;51.460;5.710;2023-05-07T07:31:10;17.70;99.90
33023;DHT22;19390;51.460;5.710;2023-05-07T07:33:36;17.40;99.90
33023;DHT22;19390;51.460;5.710;2023-05-07T07:36:02;18.30;99.90
33023;DHT22;19390;51.460;5.710;2023-05-07T07:38:28;17.70;99.90
33023;DHT22;19390;51.460;5.710;2023-05-07T07:40:53;17.60;99.90
33023;DHT22;19390;51.460;5.710;2023-05-07T07:43:19;17.50;99.90
33023;DHT22;19390;51.460;5.710;2023-05-07T07:45:44;18.00;99.90
33023;DHT22;19390;51.460;5.710;2023-05-07T07:48:11;17.80;99.90
33023;DHT22;19390;51.460;5.710;2023-05-07T07:50:36;18.10;99.90
33023;DHT22;19390;51.460;5.710;2023-05-07T07:53:02;18.20;99.90
33023;DHT22;19390;51.460;5.710;2023-05-07T07:55:28;18.00;99.90
33023;DHT22;19390;51.460;5.710;2023-05-07T07:57:53;18.10;99.90
33023;DHT22;19390;51.460;5.710;2023-05-07T08:00:19;18.10;99.90
33023;DHT22;19390;51.460;5.710;2023-05-07T08:02:45;18.00;99.90
33023;DHT22;19390;51.460;5.710;2023-05-07T08:05:10;17.80;99.90
33023;DHT22;19390;51.460;5.710;2023-05-07T08:07:36;18.50;99.90
33023;DHT22;19390;51.460;5.710;2023-05-07T08:10:02;18.90;99.90
33023;DHT22;19390;51.460;5.710;2023-05-07T08:12:27;19.10;99.90
33023;DHT22;19390;51.460;5.710;2023-05-07T08:14:53;20.10;99.90
33023;DHT22;19390;51.460;5.710;2023-05-07T08:17:19;20.50;99.90
33023;DHT22;19390;51.460;5.710;2023-05-07T08:19:47;20.10;99.90
33023;DHT22;19390;51.460;5.710;2023-05-07T08:22:13;20.00;99.90
33023;DHT22;19390;51.460;5.710;2023-05-07T08:24:39;21.10;99.90
33023;DHT22;19390;51.460;5.710;2023-05-07T08:27:05;21.80;99.90
33023;DHT22;19390;51.460;5.710;2023-05-07T08:29:30;21.50;99.90
33023;DHT22;19390;51.460;5.710;2023-05-07T08:31:56;20.70;99.90
33023;DHT22;19390;51.460;5.710;2023-05-07T08:34:22;19.30;99.90
33023;DHT22;19390;51.460;5.710;2023-05-07T08:36:48;19.40;99.90
33023;DHT22;19390;51.460;5.710;2023-05-07T08:39:17;20.20;99.90
33023;DHT22;19390;51.460;5.710;2023-05-07T08:41:46;20.20;99.90
33023;DHT22;19390;51.460;5.710;2023-05-07T08:44:13;19.50;99.90
33023;DHT22;19390;51.460;5.710;2023-05-07T08:46:42;19.20;99.90
33023;DHT22;19390;51.460;5.710;2023-05-07T08:49:12;19.60;99.90
33023;DHT22;19390;51.460;5.710;2023-05-07T08:51:37;18.80;99.90
33023;DHT22;19390;51.460;5.710;2023-05-07T08:54:03;19.30;99.90
33023;DHT22;19390;51.460;5.710;2023-05-07T08:56:30;19.20;99.90
33023;DHT22;19390;51.460;5.710;2023-05-07T08:58:56;18.90;99.90
33023;DHT22;19390;51.460;5.710;2023-05-07T09:01:24;18.70;99.90
33023;DHT22;19390;51.460;5.710;2023-05-07T09:03:51;18.80;99.90
33023;DHT22;19390;51.460;5.710;2023-05-07T09:06:17;19.10;99.90
33023;DHT22;19390;51.460;5.710;2023-05-07T09:08:52;19.10;99.90
33023;DHT22;19390;51.460;5.710;2023-05-07T09:11:25;19.90;99.90
33023;DHT22;19390;51.460;5.710;2023-05-07T09:13:54;19.90;99.90
33023;DHT22;19390;51.460;5.710;2023-05-07T09:16:21;19.30;99.90
33023;DHT22;19390;51.460;5.710;2023-05-07T09:18:51;19.60;99.90
33023;DHT22;19390;51.460;5.710;2023-05-07T09:21:18;19.40;99.90
33023;DHT22;19390;51.460;5.710;2023-05-07T09:23:44;19.70;99.90
33023;DHT22;19390;51.460;5.710;2023-05-07T09:26:09;20.00;99.90
33023;DHT22;19390;51.460;5.710;2023-05-07T09:28:43;21.30;99.90
33023;DHT22;19390;51.460;5.710;2023-05-07T09:31:10;21.30;99.90
33023;DHT22;19390;51.460;5.710;2023-05-07T09:33:36;21.60;99.90
33023;DHT22;19390;51.460;5.710;2023-05-07T09:36:04;22.00;99.90
33023;DHT22;19390;51.460;5.710;2023-05-07T09:38:30;22.00;99.90
33023;DHT22;19390;51.460;5.710;2023-05-07T09:41:07;22.50;99.90
33023;DHT22;19390;51.460;5.710;2023-05-07T09:43:37;22.70;99.90
33023;DHT22;19390;51.460;5.710;2023-05-07T09:46:07;22.60;99.90
33023;DHT22;19390;51.460;5.710;2023-05-07T09:48:37;23.00;99.90
33023;DHT22;19390;51.460;5.710;2023-05-07T09:51:10;21.50;99.90
33023;DHT22;19390;51.460;5.710;2023-05-07T09:53:37;22.40;99.90
33023;DHT22;19390;51.460;5.710;2023-05-07T09:56:03;22.50;99.90
33023;DHT22;19390;51.460;5.710;2023-05-07T09:58:29;23.00;99.90
33023;DHT22;19390;51.460;5.710;2023-05-07T10:00:57;23.70;99.90
33023;DHT22;19390;51.460;5.710;2023-05-07T10:03:24;23.20;99.90
33023;DHT22;19390;51.460;5.710;2023-05-07T10:05:51;23.30;99.90
33023;DHT22;19390;51.460;5.710;2023-05-07T10:08:18;22.70;99.90
33023;DHT22;19390;51.460;5.710;2023-05-07T10:10:45;22.80;99.90
33023;DHT22;19390;51.460;5.710;2023-05-07T10:13:11;24.10;99.90
33023;DHT22;19390;51.460;5.710;2023-05-07T10:15:38;22.00;99.90
33023;DHT22;19390;51.460;5.710;2023-05-07T10:18:04;23.00;99.90
33023;DHT22;19390;51.460;5.710;2023-05-07T10:20:32;23.90;99.90
33023;DHT22;19390;51.460;5.710;2023-05-07T10:22:58;24.00;99.90
33023;DHT22;19390;51.460;5.710;2023-05-07T10:25:30;24.00;99.90
33023;DHT22;19390;51.460;5.710;2023-05-07T10:28:01;24.80;99.90
33023;DHT22;19390;51.460;5.710;2023-05-07T10:33:09;26.40;99.90
33023;DHT22;19390;51.460;5.710;2023-05-07T10:35:42;26.40;99.90
33023;DHT22;19390;51.460;5.710;2023-05-07T10:38:08;25.90;99.90
33023;DHT22;19390;51.460;5.710;2023-05-07T10:40:34;25.60;99.90
33023;DHT22;19390;51.460;5.710;2023-05-07T10:43:02;25.90;99.90
33023;DHT22;19390;51.460;5.710;2023-05-07T10:45:30;25.90;99.90
33023;DHT22;19390;51.460;5.710;2023-05-07T10:48:16;25.20;99.90
33023;DHT22;19390;51.460;5.710;2023-05-07T10:50:45;24.40;99.90
33023;DHT22;19390;51.460;5.710;2023-05-07T10:55:42;23.80;99.90
33023;DHT22;19390;51.460;5.710;2023-05-07T10:58:27;25.00;99.90
33023;DHT22;19390;51.460;5.710;2023-05-07T11:01:01;25.00;99.90
33023;DHT22;19390;51.460;5.710;2023-05-07T11:03:27;24.30;99.90
33023;DHT22;19390;51.460;5.710;2023-05-07T11:06:14;24.00;99.90
33023;DHT22;19390;51.460;5.710;2023-05-07T11:08:56;24.00;99.90
33023;DHT22;19390;51.460;5.710;2023-05-07T11:11:44;24.40;99.90
33023;DHT22;19390;51.460;5.710;2023-05-07T11:14:10;25.00;99.90
33023;DHT22;19390;51.460;5.710;2023-05-07T11:16:36;25.20;99.90
33023;DHT22;19390;51.460;5.710;2023-05-07T11:19:03;24.60;99.90
33023;DHT22;19390;51.460;5.710;2023-05-07T11:21:40;24.40;99.90
33023;DHT22;19390;51.460;5.710;2023-05-07T11:24:10;22.80;99.90
33023;DHT22;19390;51.460;5.710;2023-05-07T11:26:44;22.90;99.90
33023;DHT22;19390;51.460;5.710;2023-05-07T11:29:16;22.80;99.90
33023;DHT22;19390;51.460;5.710;2023-05-07T11:31:43;22.40;99.90
33023;DHT22;19390;51.460;5.710;2023-05-07T11:34:09;23.60;99.90
33023;DHT22;19390;51.460;5.710;2023-05-07T11:36:36;23.90;99.90
33023;DHT22;19390;51.460;5.710;2023-05-07T11:39:30;25.30;99.90
33023;DHT22;19390;51.460;5.710;2023-05-07T11:42:01;25.80;99.90
33023;DHT22;19390;51.460;5.710;2023-05-07T11:44:46;23.50;99.90
33023;DHT22;19390;51.460;5.710;2023-05-07T11:47:20;24.10;99.90
33023;DHT22;19390;51.460;5.710;2023-05-07T11:49:50;24.40;99.90
33023;DHT22;19390;51.460;5.710;2023-05-07T11:52:17;24.70;99.90
33023;DHT22;19390;51.460;5.710;2023-05-07T11:54:50;23.10;99.90
33023;DHT22;19390;51.460;5.710;2023-05-07T11:57:16;23.00;99.90
33023;DHT22;19390;51.460;5.710;2023-05-07T11:59:42;22.80;99.90
33023;DHT22;19390;51.460;5.710;2023-05-07T12:02:14;22.30;99.90
33023;DHT22;19390;51.460;5.710;2023-05-07T12:04:40;23.10;99.90
33023;DHT22;19390;51.460;5.710;2023-05-07T12:07:14;23.20;99.90
33023;DHT22;19390;51.460;5.710;2023-05-07T12:09:41;23.70;99.90
33023;DHT22;19390;51.460;5.710;2023-05-07T12:12:07;23.60;99.90
33023;DHT22;19390;51.460;5.710;2023-05-07T12:14:41;23.60;99.90
33023;DHT22;19390;51.460;5.710;2023-05-07T12:17:08;23.80;99.90
33023;DHT22;19390;51.460;5.710;2023-05-07T12:19:35;23.80;99.90
33023;DHT22;19390;51.460;5.710;2023-05-07T12:22:03;23.50;99.90
33023;DHT22;19390;51.460;5.710;2023-05-07T12:24:29;23.70;99.90
33023;DHT22;19390;51.460;5.710;2023-05-07T12:26:54;22.60;99.90
33023;DHT22;19390;51.460;5.710;2023-05-07T12:29:23;22.40;99.90
33023;DHT22;19390;51.460;5.710;2023-05-07T12:31:50;22.70;99.90
33023;DHT22;19390;51.460;5.710;2023-05-07T12:34:16;22.70;99.90
33023;DHT22;19390;51.460;5.710;2023-05-07T12:36:41;22.90;99.90
33023;DHT22;19390;51.460;5.710;2023-05-07T12:39:08;22.90;99.90
33023;DHT22;19390;51.460;5.710;2023-05-07T12:41:54;22.70;99.90
33023;DHT22;19390;51.460;5.710;2023-05-07T12:44:23;21.70;99.90
33023;DHT22;19390;51.460;5.710;2023-05-07T12:46:49;21.90;99.90
33023;DHT22;19390;51.460;5.710;2023-05-07T12:49:15;21.80;99.90
33023;DHT22;19390;51.460;5.710;2023-05-07T12:51:41;21.30;99.90
33023;DHT22;19390;51.460;5.710;2023-05-07T12:54:06;21.30;99.90
33023;DHT22;19390;51.460;5.710;2023-05-07T12:56:35;21.10;99.90
33023;DHT22;19390;51.460;5.710;2023-05-07T12:59:01;21.10;99.90
33023;DHT22;19390;51.460;5.710;2023-05-07T13:01:30;21.10;99.90
33023;DHT22;19390;51.460;5.710;2023-05-07T13:04:00;21.00;99.90
33023;DHT22;19390;51.460;5.710;2023-05-07T13:06:26;20.90;99.90
33023;DHT22;19390;51.460;5.710;2023-05-07T13:08:52;20.10;99.90
33023;DHT22;19390;51.460;5.710;2023-05-07T13:11:18;19.20;99.90
33023;DHT22;19390;51.460;5.710;2023-05-07T13:13:43;18.60;99.90
33023;DHT22;19390;51.460;5.710;2023-05-07T13:16:10;18.40;99.90
33023;DHT22;19390;51.460;5.710;2023-05-07T13:18:38;18.10;99.90
33023;DHT22;19390;51.460;5.710;2023-05-07T13:21:04;17.70;99.90
33023;DHT22;19390;51.460;5.710;2023-05-07T13:23:30;17.50;99.90
33023;DHT22;19390;51.460;5.710;2023-05-07T13:25:55;17.40;99.90
33023;DHT22;19390;51.460;5.710;2023-05-07T13:28:21;17.10;99.90
33023;DHT22;19390;51.460;5.710;2023-05-07T13:30:47;16.80;99.90
33023;DHT22;19390;51.460;5.710;2023-05-07T13:33:13;16.70;99.90
33023;DHT22;19390;51.460;5.710;2023-05-07T13:35:39;16.40;99.90
33023;DHT22;19390;51.460;5.710;2023-05-07T13:38:05;16.50;99.90
33023;DHT22;19390;51.460;5.710;2023-05-07T13:40:30;16.40;99.90
33023;DHT22;19390;51.460;5.710;2023-05-07T13:42:59;16.50;99.90
33023;DHT22;19390;51.460;5.710;2023-05-07T13:45:27;16.40;99.90
33023;DHT22;19390;51.460;5.710;2023-05-07T13:47:54;16.50;99.90
33023;DHT22;19390;51.460;5.710;2023-05-07T13:50:20;16.70;99.90
33023;DHT22;19390;51.460;5.710;2023-05-07T13:52:45;16.70;99.90
33023;DHT22;19390;51.460;5.710;2023-05-07T13:55:17;16.60;99.90
33023;DHT22;19390;51.460;5.710;2023-05-07T13:57:43;16.80;99.90
33023;DHT22;19390;51.460;5.710;2023-05-07T14:00:09;16.60;99.90
33023;DHT22;19390;51.460;5.710;2023-05-07T14:02:35;16.60;99.90
33023;DHT22;19390;51.460;5.710;2023-05-07T14:05:00;16.80;99.90
33023;DHT22;19390;51.460;5.710;2023-05-07T14:07:26;16.80;99.90
33023;DHT22;19390;51.460;5.710;2023-05-07T14:09:52;16.90;99.90
33023;DHT22;19390;51.460;5.710;2023-05-07T14:12:17;17.10;99.90
33023;DHT22;19390;51.460;5.710;2023-05-07T14:14:43;16.90;99.90
33023;DHT22;19390;51.460;5.710;2023-05-07T14:17:08;16.90;99.90
33023;DHT22;19390;51.460;5.710;2023-05-07T14:19:34;16.90;99.90
33023;DHT22;19390;51.460;5.710;2023-05-07T14:22:00;17.00;99.90
33023;DHT22;19390;51.460;5.710;2023-05-07T14:24:25;16.90;99.90
33023;DHT22;19390;51.460;5.710;2023-05-07T14:26:51;17.00;99.90
33023;DHT22;19390;51.460;5.710;2023-05-07T14:29:17;17.20;99.90
33023;DHT22;19390;51.460;5.710;2023-05-07T14:31:44;17.20;99.90
33023;DHT22;19390;51.460;5.710;2023-05-07T14:34:10;17.30;99.90
33023;DHT22;19390;51.460;5.710;2023-05-07T14:36:36;17.50;99.90
33023;DHT22;19390;51.460;5.710;2023-05-07T14:39:03;17.50;99.90
33023;DHT22;19390;51.460;5.710;2023-05-07T14:41:29;17.70;99.90
33023;DHT22;19390;51.460;5.710;2023-05-07T14:43:54;17.90;99.90
33023;DHT22;19390;51.460;5.710;2023-05-07T14:46:20;18.00;99.90
33023;DHT22;19390;51.460;5.710;2023-05-07T14:48:46;18.20;99.90
33023;DHT22;19390;51.460;5.710;2023-05-07T14:51:12;18.30;99.90
33023;DHT22;19390;51.460;5.710;2023-05-07T14:53:38;18.40;99.90
33023;DHT22;19390;51.460;5.710;2023-05-07T14:56:04;18.60;99.90
33023;DHT22;19390;51.460;5.710;2023-05-07T14:58:30;18.40;99.90
33023;DHT22;19390;51.460;5.710;2023-05-07T15:00:56;18.40;99.90
33023;DHT22;19390;51.460;5.710;2023-05-07T15:03:22;18.70;99.90
33023;DHT22;19390;51.460;5.710;2023-05-07T15:05:48;18.90;99.90
33023;DHT22;19390;51.460;5.710;2023-05-07T15:08:16;18.90;99.90
33023;DHT22;19390;51.460;5.710;2023-05-07T15:10:41;19.00;99.90
33023;DHT22;19390;51.460;5.710;2023-05-07T15:13:08;18.70;99.90
33023;DHT22;19390;51.460;5.710;2023-05-07T15:15:34;18.80;99.90
33023;DHT22;19390;51.460;5.710;2023-05-07T15:18:00;18.90;99.90
33023;DHT22;19390;51.460;5.710;2023-05-07T15:20:26;18.90;99.90
33023;DHT22;19390;51.460;5.710;2023-05-07T15:22:52;18.50;99.90
33023;DHT22;19390;51.460;5.710;2023-05-07T15:25:17;18.20;99.90
33023;DHT22;19390;51.460;5.710;2023-05-07T15:27:43;18.30;99.90
33023;DHT22;19390;51.460;5.710;2023-05-07T15:30:09;18.40;99.90
33023;DHT22;19390;51.460;5.710;2023-05-07T15:32:36;18.50;99.90